Time;durP1;ratioP1;P1;durP2;ratioP2;P2;SDS_P1;SDS_P2;PMS_P1;PMS_P2;Temp;Humidity;BMP_temperature;BMP_pressure;BME280_temperature;BME280_humidity;BME280_pressure;Samples;Min_cycle;Max_cycle;Signal;HPM_P1;HPM_P2
2022/06/21 00:00:51;;;;;;;8.20;2.70;;;11.50;97.60;;;;;;5104816;28;20043;-57
2022/06/21 00:03:22;;;;;;;7.10;2.58;;;11.50;97.90;;;;;;5102477;28;20052;-55
2022/06/21 00:05:52;;;;;;;7.75;2.58;;;11.40;98.20;;;;;;5102329;28;20490;-56
2022/06/21 00:08:25;;;;;;;5.57;2.72;;;11.40;98.60;;;;;;5099005;28;20044;-56
2022/06/21 00:10:55;;;;;;;6.72;2.42;;;11.30;99.00;;;;;;5091875;28;20035;-58
2022/06/21 00:13:26;;;;;;;6.47;2.60;;;11.30;99.30;;;;;;5106755;28;20046;-57
2022/06/21 00:15:58;;;;;;;6.30;2.35;;;11.20;99.50;;;;;;5102913;28;20032;-57
2022/06/21 00:18:28;;;;;;;4.95;2.53;;;11.20;99.80;;;;;;5101941;28;20043;-56
2022/06/21 00:20:56;;;;;;;5.43;2.83;;;11.20;99.90;;;;;;5108948;28;20035;-58
2022/06/21 00:23:30;;;;;;;10.60;3.33;;;11.10;99.90;;;;;;5100907;28;20046;-57
2022/06/21 00:25:59;;;;;;;6.45;3.20;;;11.10;99.90;;;;;;5104617;28;20036;-57
2022/06/21 00:28:27;;;;;;;5.63;2.50;;;11.00;99.90;;;;;;5107384;28;20039;-56
2022/06/21 00:30:55;;;;;;;6.70;2.53;;;11.00;99.90;;;;;;5099953;28;20044;-57
2022/06/21 00:33:24;;;;;;;5.20;3.10;;;11.00;99.90;;;;;;5104298;28;20356;-57
2022/06/21 00:35:56;;;;;;;6.25;2.55;;;10.90;99.90;;;;;;5101449;28;20715;-57
2022/06/21 00:38:34;;;;;;;4.00;2.35;;;10.90;99.90;;;;;;5098300;28;20043;-57
2022/06/21 00:41:06;;;;;;;3.58;2.20;;;10.90;99.90;;;;;;5099674;28;20444;-57
2022/06/21 00:43:40;;;;;;;6.22;2.75;;;10.80;99.90;;;;;;5104421;28;20707;-57
2022/06/21 00:46:31;;;;;;;5.47;2.45;;;10.80;99.90;;;;;;5102777;28;20380;-58
2022/06/21 00:49:02;;;;;;;5.68;2.42;;;10.80;99.90;;;;;;5100758;28;20044;-58
2022/06/21 00:51:39;;;;;;;7.25;2.30;;;10.70;99.90;;;;;;5110792;28;20050;-58
2022/06/21 00:54:27;;;;;;;8.48;2.58;;;10.70;99.90;;;;;;5112390;28;20482;-57
2022/06/21 00:57:03;;;;;;;6.50;2.95;;;10.60;99.90;;;;;;5103787;28;20589;-58
2022/06/21 00:59:32;;;;;;;7.50;3.00;;;10.60;99.90;;;;;;5104063;28;20437;-58
2022/06/21 01:02:05;;;;;;;11.20;2.70;;;10.60;99.90;;;;;;5109825;28;20051;-58
2022/06/21 01:04:34;;;;;;;9.38;2.53;;;10.50;99.90;;;;;;5086265;28;20051;-58
2022/06/21 01:07:06;;;;;;;6.32;2.22;;;10.50;99.90;;;;;;5105760;28;20048;-57
2022/06/21 01:09:35;;;;;;;9.25;3.30;;;10.50;99.90;;;;;;5108211;28;20513;-57
2022/06/21 01:12:07;;;;;;;7.30;3.35;;;10.50;99.90;;;;;;5099786;28;20082;-57
2022/06/21 01:14:37;;;;;;;9.57;2.63;;;10.40;99.90;;;;;;5111027;28;20356;-57
2022/06/21 01:17:08;;;;;;;7.35;2.75;;;10.40;99.90;;;;;;5095367;28;20126;-57
2022/06/21 01:19:41;;;;;;;6.75;2.65;;;10.40;99.90;;;;;;5102050;28;20047;-57
2022/06/21 01:22:20;;;;;;;6.30;2.78;;;10.40;99.90;;;;;;5099974;28;20515;-57
2022/06/21 01:25:16;;;;;;;7.40;2.70;;;10.30;99.90;;;;;;5111880;28;20047;-57
2022/06/21 01:27:44;;;;;;;6.20;2.80;;;10.30;99.90;;;;;;5110418;28;20088;-56
2022/06/21 01:30:12;;;;;;;5.38;2.83;;;10.30;99.90;;;;;;5101023;28;20051;-55
2022/06/21 01:32:40;;;;;;;8.55;2.72;;;10.30;99.90;;;;;;5101393;28;20046;-55
2022/06/21 01:35:13;;;;;;;6.72;2.35;;;10.30;99.90;;;;;;5112342;28;20047;-55
2022/06/21 01:37:41;;;;;;;4.93;2.20;;;10.30;99.90;;;;;;5111175;28;20051;-55
2022/06/21 01:40:20;;;;;;;6.82;2.88;;;10.30;99.90;;;;;;5092363;28;20044;-54
2022/06/21 01:42:54;;;;;;;7.43;2.90;;;10.30;99.90;;;;;;5097648;28;20399;-55
2022/06/21 01:45:26;;;;;;;7.60;3.22;;;10.30;99.90;;;;;;5111599;28;20790;-54
2022/06/21 01:48:01;;;;;;;5.65;2.30;;;10.30;99.90;;;;;;5111940;28;20047;-55
2022/06/21 01:50:29;;;;;;;3.90;2.40;;;10.30;99.90;;;;;;5110750;28;20048;-56
2022/06/21 01:52:57;;;;;;;3.63;2.25;;;10.30;99.90;;;;;;5113255;28;20042;-56
2022/06/21 01:55:34;;;;;;;4.20;2.25;;;10.30;99.90;;;;;;5111618;28;20082;-56
2022/06/21 01:58:04;;;;;;;7.97;2.22;;;10.30;99.90;;;;;;5110368;27;20050;-56
2022/06/21 02:00:35;;;;;;;5.43;2.35;;;10.30;99.90;;;;;;5107177;27;20052;-56
2022/06/21 02:03:11;;;;;;;3.95;2.28;;;10.20;99.90;;;;;;5103697;28;20031;-57
2022/06/21 02:05:50;;;;;;;10.00;2.95;;;10.20;99.90;;;;;;5110075;28;20524;-56
2022/06/21 02:08:23;;;;;;;7.43;2.22;;;10.20;99.90;;;;;;5108639;28;20073;-57
2022/06/21 02:10:56;;;;;;;6.28;2.10;;;10.20;99.90;;;;;;5104720;28;20040;-56
2022/06/21 02:13:33;;;;;;;6.43;2.38;;;10.10;99.90;;;;;;5109361;28;20052;-56
2022/06/21 02:16:08;;;;;;;4.28;2.92;;;10.10;99.90;;;;;;5102607;28;20048;-57
2022/06/21 02:18:42;;;;;;;5.03;2.30;;;10.10;99.90;;;;;;5112420;28;20044;-55
2022/06/21 02:21:22;;;;;;;6.05;2.15;;;10.00;99.90;;;;;;5103908;28;20051;-57
2022/06/21 02:23:52;;;;;;;6.40;2.17;;;10.00;99.90;;;;;;5093053;28;20058;-56
2022/06/21 02:26:22;;;;;;;6.43;2.17;;;10.00;99.90;;;;;;5091821;28;20040;-54
2022/06/21 02:28:50;;;;;;;7.28;2.30;;;10.00;99.90;;;;;;5093167;28;20538;-55
2022/06/21 02:31:19;;;;;;;5.78;2.78;;;10.00;99.90;;;;;;5092237;28;20044;-57
2022/06/21 02:33:50;;;;;;;8.55;2.30;;;10.00;99.90;;;;;;5092996;28;20051;-58
2022/06/21 02:36:22;;;;;;;6.63;2.22;;;9.90;99.90;;;;;;5091753;28;20047;-57
2022/06/21 02:38:56;;;;;;;9.55;2.20;;;9.90;99.90;;;;;;5093332;27;20048;-56
2022/06/21 02:41:35;;;;;;;3.65;2.15;;;9.90;99.90;;;;;;5110674;28;20478;-57
2022/06/21 02:44:17;;;;;;;4.13;2.38;;;9.90;99.90;;;;;;5110652;28;20406;-55
2022/06/21 02:46:49;;;;;;;6.50;2.35;;;9.90;99.90;;;;;;5095889;28;20039;-56
2022/06/21 02:49:34;;;;;;;6.22;2.80;;;9.80;99.90;;;;;;5108539;28;20044;-56
2022/06/21 02:52:06;;;;;;;5.40;2.15;;;9.80;99.90;;;;;;5101871;28;20071;-57
2022/06/21 02:54:40;;;;;;;4.90;2.17;;;9.70;99.90;;;;;;5110452;28;20051;-56
2022/06/21 02:57:23;;;;;;;4.03;2.15;;;9.70;99.90;;;;;;5110331;28;20044;-57
2022/06/21 02:59:53;;;;;;;5.75;2.35;;;9.70;99.90;;;;;;5111428;28;20506;-57
2022/06/21 03:02:23;;;;;;;7.03;2.33;;;9.70;99.90;;;;;;5111490;28;20066;-57
2022/06/21 03:05:04;;;;;;;6.63;2.03;;;9.70;99.90;;;;;;5110422;28;20043;-56
2022/06/21 03:07:33;;;;;;;;;;;9.70;99.90;;;;;;5092482;28;20059;-57
2022/06/21 03:10:01;;;;;;;5.90;2.58;;;9.70;99.90;;;;;;5092122;28;19931;-57
2022/06/21 03:12:32;;;;;;;6.13;2.55;;;9.70;99.90;;;;;;5090362;28;20059;-57
2022/06/21 03:15:09;;;;;;;4.50;2.60;;;9.70;99.90;;;;;;5091028;28;20055;-57
2022/06/21 03:17:45;;;;;;;10.43;2.58;;;9.70;99.90;;;;;;5091711;28;20051;-56
2022/06/21 03:20:16;;;;;;;3.80;2.30;;;9.70;99.90;;;;;;5091840;28;20048;-57
2022/06/21 03:22:45;;;;;;;6.32;3.15;;;9.70;99.90;;;;;;5090410;28;20467;-57
2022/06/21 03:25:29;;;;;;;4.07;2.10;;;9.60;99.90;;;;;;5090502;28;20071;-57
2022/06/21 03:28:00;;;;;;;7.35;2.63;;;9.60;99.90;;;;;;5092048;28;20040;-58
2022/06/21 03:30:31;;;;;;;9.00;2.50;;;9.60;99.90;;;;;;5091699;28;20059;-58
2022/06/21 03:33:01;;;;;;;5.28;2.20;;;9.60;99.90;;;;;;5091995;28;20605;-57
2022/06/21 03:35:33;;;;;;;6.93;2.78;;;9.60;99.90;;;;;;5090618;28;20052;-58
2022/06/21 03:38:02;;;;;;;6.97;2.40;;;9.50;99.90;;;;;;5091742;28;20051;-58
2022/06/21 03:43:26;;;;;;;7.00;2.92;;;9.50;99.90;;;;;;5097772;28;20062;-58
2022/06/21 03:45:57;;;;;;;6.95;2.38;;;9.50;99.90;;;;;;5102380;28;20040;-57
2022/06/21 03:48:33;;;;;;;6.78;2.50;;;9.40;99.90;;;;;;5107084;28;20040;-57
2022/06/21 03:51:16;;;;;;;5.47;2.75;;;9.40;99.90;;;;;;5104862;28;20058;-57
2022/06/21 03:54:18;;;;;;;7.80;2.80;;;9.40;99.90;;;;;;5111848;28;20052;-57
2022/06/21 03:57:18;;;;;;;9.63;2.80;;;9.40;99.90;;;;;;5097554;28;20052;-56
2022/06/21 03:59:46;;;;;;;;;;;9.40;99.90;;;;;;5100926;28;20056;-55
2022/06/21 04:02:33;;;;;;;6.65;2.30;;;9.40;99.90;;;;;;5111107;28;20370;-56
2022/06/21 04:05:05;;;;;;;5.85;2.70;;;9.30;99.90;;;;;;5111951;28;20039;-54
2022/06/21 04:07:59;;;;;;;6.20;2.70;;;9.30;99.90;;;;;;5109467;28;20043;-56
2022/06/21 04:10:45;;;;;;;6.10;3.10;;;9.30;99.90;;;;;;5105912;28;20052;-56
2022/06/21 04:13:20;;;;;;;8.18;2.88;;;9.40;99.90;;;;;;5097201;28;20487;-54
2022/06/21 04:15:51;;;;;;;4.88;2.83;;;9.30;99.90;;;;;;5103758;28;20050;-56
2022/06/21 04:18:46;;;;;;;10.27;2.38;;;9.30;99.90;;;;;;5105919;28;20043;-56
2022/06/21 04:21:26;;;;;;;5.40;2.75;;;9.30;99.90;;;;;;5101567;28;20047;-57
2022/06/21 04:24:15;;;;;;;6.65;2.97;;;9.40;99.90;;;;;;5095971;28;20634;-56
2022/06/21 04:27:00;;;;;;;9.00;2.92;;;9.40;99.90;;;;;;5103286;28;20048;-57
2022/06/21 04:29:33;;;;;;;10.43;3.00;;;9.40;99.90;;;;;;5112800;28;20043;-56
2022/06/21 04:32:13;;;;;;;5.78;3.33;;;9.40;99.90;;;;;;5114065;28;20585;-54
2022/06/21 04:35:13;;;;;;;8.23;3.50;;;9.40;99.90;;;;;;5097857;28;20036;-56
2022/06/21 04:37:50;;;;;;;5.97;2.95;;;9.40;99.90;;;;;;5104371;28;20054;-56
2022/06/21 04:40:24;;;;;;;8.85;3.38;;;9.40;99.90;;;;;;5112192;28;20483;-54
2022/06/21 04:43:03;;;;;;;6.90;3.05;;;9.40;99.90;;;;;;5114520;28;20450;-55
2022/06/21 04:45:37;;;;;;;10.10;4.30;;;9.40;99.90;;;;;;5114611;28;20058;-56
2022/06/21 04:48:24;;;;;;;6.43;3.20;;;9.40;99.90;;;;;;5095602;28;20044;-56
2022/06/21 04:51:11;;;;;;;5.88;3.28;;;9.40;99.90;;;;;;5105908;28;20044;-57
2022/06/21 04:54:02;;;;;;;8.15;3.38;;;9.40;99.90;;;;;;5104122;28;20032;-56
2022/06/21 04:56:37;;;;;;;7.50;3.60;;;9.50;99.90;;;;;;5098798;28;20044;-54
2022/06/21 04:59:28;;;;;;;9.68;3.45;;;9.50;99.90;;;;;;5107434;28;20054;-54
2022/06/21 05:01:57;;;;;;;8.95;3.92;;;9.50;99.90;;;;;;5093728;28;20044;-57
2022/06/21 05:04:30;;;;;;;7.25;3.33;;;9.60;99.90;;;;;;5105988;28;20059;-56
2022/06/21 05:07:01;;;;;;;9.65;4.22;;;9.60;99.90;;;;;;5107818;28;20418;-57
2022/06/21 05:09:32;;;;;;;7.55;3.40;;;9.60;99.90;;;;;;5100113;28;20051;-57
2022/06/21 05:12:11;;;;;;;7.63;3.58;;;9.70;99.90;;;;;;5105680;28;20043;-56
2022/06/21 05:14:44;;;;;;;9.55;3.78;;;9.80;99.90;;;;;;5107332;28;20064;-56
2022/06/21 05:17:16;;;;;;;9.43;4.05;;;9.80;99.90;;;;;;5094917;28;20615;-56
2022/06/21 05:19:48;;;;;;;6.38;3.42;;;9.90;99.90;;;;;;5100606;28;20051;-56
2022/06/21 05:22:35;;;;;;;8.15;3.50;;;10.00;99.90;;;;;;5103945;28;20646;-54
2022/06/21 05:25:15;;;;;;;5.57;3.42;;;10.00;99.90;;;;;;5103523;28;20052;-56
2022/06/21 05:28:06;;;;;;;9.45;4.20;;;10.00;99.90;;;;;;5093901;28;20631;-56
2022/06/21 05:30:57;;;;;;;6.25;4.55;;;10.10;99.90;;;;;;5083641;28;20048;-57
2022/06/21 05:33:28;;;;;;;11.45;4.05;;;10.20;99.90;;;;;;5102218;28;20039;-57
2022/06/21 05:35:56;;;;;;;9.70;3.78;;;10.20;99.90;;;;;;5104065;28;20067;-57
2022/06/21 05:38:28;;;;;;;11.65;3.70;;;10.30;99.90;;;;;;5104649;28;20032;-57
2022/06/21 05:41:05;;;;;;;7.50;3.65;;;10.40;99.90;;;;;;5092682;28;20044;-56
2022/06/21 05:43:46;;;;;;;5.80;3.17;;;10.40;99.90;;;;;;5100251;28;20062;-56
2022/06/21 05:46:17;;;;;;;5.60;3.50;;;10.50;99.90;;;;;;5098865;28;20047;-57
2022/06/21 05:48:46;;;;;;;12.45;4.38;;;10.60;99.90;;;;;;5098334;28;20346;-57
2022/06/21 05:51:30;;;;;;;6.25;4.00;;;10.60;99.90;;;;;;5097744;28;20491;-57
2022/06/21 05:54:13;;;;;;;9.75;4.53;;;10.70;99.90;;;;;;5104490;28;20031;-56
2022/06/21 05:56:41;;;;;;;9.52;5.00;;;10.80;99.90;;;;;;5091633;28;20413;-57
2022/06/21 05:59:14;;;;;;;9.50;4.50;;;10.90;99.90;;;;;;5098815;28;20052;-55
2022/06/21 06:02:08;;;;;;;12.80;4.43;;;11.00;99.90;;;;;;5106289;28;20386;-57
2022/06/21 06:04:55;;;;;;;13.48;4.85;;;11.20;99.90;;;;;;5111865;28;20047;-57
2022/06/21 06:07:42;;;;;;;10.13;4.72;;;11.30;99.90;;;;;;5100960;28;20857;-58
2022/06/21 06:10:11;;;;;;;10.85;4.60;;;11.50;99.90;;;;;;5104834;28;20046;-57
2022/06/21 06:12:46;;;;;;;8.95;4.22;;;11.60;99.90;;;;;;5096280;28;20043;-57
2022/06/21 06:15:46;;;;;;;7.05;3.97;;;11.80;99.90;;;;;;5108173;28;20035;-57
2022/06/21 06:18:45;;;;;;;7.90;4.00;;;11.90;99.90;;;;;;5102538;28;20059;-56
2022/06/21 06:21:25;;;;;;;6.88;3.30;;;12.20;99.90;;;;;;5108910;28;20043;-57
2022/06/21 06:24:21;;;;;;;11.67;4.50;;;12.40;99.90;;;;;;5097272;28;20040;-57
2022/06/21 06:26:56;;;;;;;8.50;4.32;;;12.60;99.90;;;;;;5096474;28;20043;-57
2022/06/21 06:29:40;;;;;;;5.82;3.95;;;12.70;99.90;;;;;;5102713;28;20640;-57
2022/06/21 06:32:31;;;;;;;9.68;3.30;;;12.80;99.90;;;;;;5110359;28;20054;-57
2022/06/21 06:35:00;;;;;;;9.75;3.25;;;12.90;99.90;;;;;;5104443;28;20055;-58
2022/06/21 06:37:41;;;;;;;7.28;3.38;;;13.00;99.90;;;;;;5100164;28;20040;-57
2022/06/21 06:40:35;;;;;;;12.30;4.80;;;13.20;99.90;;;;;;5092464;28;20044;-57
2022/06/21 06:43:15;;;;;;;8.43;3.70;;;13.20;99.90;;;;;;5103108;28;20058;-56
2022/06/21 06:45:43;;;;;;;;;;;13.40;99.90;;;;;;5105887;28;20032;-57
2022/06/21 06:48:22;;;;;;;12.60;3.30;;;13.50;99.90;;;;;;5096901;28;19928;-58
2022/06/21 06:50:55;;;;;;;7.30;2.22;;;13.60;99.90;;;;;;5108583;28;20047;-58
2022/06/21 06:53:45;;;;;;;8.70;2.70;;;13.70;99.90;;;;;;5102802;28;20044;-55
2022/06/21 06:56:26;;;;;;;8.27;2.10;;;13.80;99.90;;;;;;5107198;28;20050;-56
2022/06/21 06:59:12;;;;;;;13.75;2.55;;;14.00;99.90;;;;;;5097328;28;20051;-58
2022/06/21 07:01:57;;;;;;;10.57;2.33;;;14.10;99.90;;;;;;5102306;28;20046;-57
2022/06/21 07:04:33;;;;;;;4.25;1.90;;;14.10;99.90;;;;;;5105193;28;20042;-57
2022/06/21 07:07:07;;;;;;;7.75;2.63;;;14.30;99.90;;;;;;5107171;28;20391;-56
2022/06/21 07:09:43;;;;;;;7.55;2.20;;;14.30;99.90;;;;;;5101879;28;20502;-57
2022/06/21 07:12:18;;;;;;;5.13;2.25;;;14.40;99.90;;;;;;5099501;28;20047;-56
2022/06/21 07:14:48;;;;;;;5.00;2.30;;;14.60;99.90;;;;;;5100711;28;20035;-56
2022/06/21 07:17:25;;;;;;;6.88;2.38;;;14.60;99.90;;;;;;5106425;28;20048;-57
2022/06/21 07:19:55;;;;;;;4.28;1.70;;;14.70;99.90;;;;;;5108262;28;20051;-57
2022/06/21 07:22:27;;;;;;;5.80;1.90;;;14.80;99.90;;;;;;5102805;28;20047;-56
2022/06/21 07:25:10;;;;;;;11.25;2.38;;;14.90;99.90;;;;;;5107480;28;20399;-56
2022/06/21 07:27:40;;;;;;;5.90;1.98;;;15.00;99.90;;;;;;5102308;28;20059;-56
2022/06/21 07:30:10;;;;;;;6.72;2.70;;;15.10;99.90;;;;;;5108129;28;20506;-58
2022/06/21 07:32:44;;;;;;;3.88;2.10;;;15.20;99.90;;;;;;5107131;28;20051;-57
2022/06/21 07:35:18;;;;;;;4.43;2.08;;;15.30;99.90;;;;;;5102849;28;20054;-55
2022/06/21 07:37:54;;;;;;;7.65;2.20;;;15.30;99.90;;;;;;5090616;28;20040;-58
2022/06/21 07:40:32;;;;;;;5.47;2.20;;;15.40;99.90;;;;;;5089913;28;20060;-56
2022/06/21 07:43:19;;;;;;;6.90;2.10;;;15.50;99.90;;;;;;5090422;28;20036;-57
2022/06/21 07:46:00;;;;;;;3.80;1.30;;;15.60;99.90;;;;;;5090737;28;20055;-56
2022/06/21 07:49:19;;;;;;;4.85;1.60;;;15.70;99.90;;;;;;5089682;28;20036;-56
2022/06/21 07:51:52;;;;;;;5.38;1.70;;;15.80;99.90;;;;;;5090067;28;20534;-58
2022/06/21 07:54:28;;;;;;;7.13;2.05;;;15.90;99.90;;;;;;5090191;28;20048;-57
2022/06/21 07:57:06;;;;;;;6.07;2.00;;;16.00;99.90;;;;;;5088900;28;20510;-58
2022/06/21 07:59:43;;;;;;;3.10;1.35;;;16.20;99.90;;;;;;5090675;28;20399;-57
2022/06/21 08:08:30;;;;;;;4.03;1.77;;;16.40;99.90;;;;;;5100091;28;20036;-57
2022/06/21 08:11:28;;;;;;;5.78;1.98;;;16.50;99.90;;;;;;5090467;28;20478;-57
2022/06/21 08:13:56;;;;;;;5.90;3.00;;;16.60;99.90;;;;;;5098543;28;20052;-56
2022/06/21 08:16:31;;;;;;;4.95;1.98;;;16.70;99.90;;;;;;5107729;28;20051;-57
2022/06/21 08:19:17;;;;;;;7.25;2.00;;;16.80;99.90;;;;;;5094228;28;20048;-57
2022/06/21 08:22:01;;;;;;;9.90;2.20;;;16.80;99.90;;;;;;5089315;28;20043;-57
2022/06/21 08:24:34;;;;;;;6.82;2.50;;;16.90;99.90;;;;;;5089604;28;20040;-58
2022/06/21 08:27:24;;;;;;;5.90;2.17;;;17.00;99.90;;;;;;5102926;28;20048;-57
2022/06/21 08:30:01;;;;;;;6.32;2.50;;;17.00;99.90;;;;;;5098458;28;20039;-57
2022/06/21 08:32:37;;;;;;;4.25;1.80;;;17.00;99.90;;;;;;5109063;28;20048;-58
2022/06/21 08:35:20;;;;;;;8.05;2.33;;;17.10;99.90;;;;;;5109610;28;20792;-61
2022/06/21 08:38:38;;;;;;;16.15;2.53;;;17.20;99.90;;;;;;5104189;28;20055;-58
2022/06/21 08:44:41;;;;;;;4.70;2.53;;;17.40;99.90;;;;;;5077357;28;20044;-57
2022/06/21 08:47:26;;;;;;;4.15;2.28;;;17.50;99.90;;;;;;5089454;28;20047;-57
2022/06/21 08:50:36;;;;;;;9.25;2.13;;;17.70;99.90;;;;;;5089242;28;20048;-57
2022/06/21 08:53:13;;;;;;;9.27;2.67;;;17.80;99.90;;;;;;5106632;28;20055;-58
2022/06/21 08:55:40;;;;;;;7.90;2.20;;;18.00;99.90;;;;;;5108517;28;20043;-58
2022/06/21 08:58:10;;;;;;;4.70;2.10;;;18.00;99.90;;;;;;5101298;28;20048;-58
2022/06/21 09:01:00;;;;;;;4.85;2.08;;;18.00;99.90;;;;;;5089351;28;20063;-58
2022/06/21 09:03:48;;;;;;;7.20;2.33;;;18.00;99.90;;;;;;5092976;28;20035;-58
2022/06/21 09:06:40;;;;;;;4.95;2.08;;;18.10;99.90;;;;;;5098989;28;20055;-59
2022/06/21 09:09:21;;;;;;;5.63;1.55;;;18.20;99.90;;;;;;5088627;28;20043;-57
2022/06/21 09:12:30;;;;;;;4.50;1.92;;;18.20;99.90;;;;;;5099440;28;20067;-58
2022/06/21 09:15:01;;;;;;;1.48;1.20;;;18.30;99.90;;;;;;5074771;28;20044;-58
2022/06/21 09:17:36;;;;;;;3.28;1.60;;;18.40;99.70;;;;;;5108847;28;20656;-58
2022/06/21 09:20:39;;;;;;;2.15;1.00;;;18.50;98.20;;;;;;5099713;28;20121;-59
2022/06/21 09:23:45;;;;;;;3.63;1.40;;;18.60;97.20;;;;;;5069112;28;20059;-58
2022/06/21 09:26:18;;;;;;;4.28;1.20;;;18.60;96.40;;;;;;5110534;28;20052;-57
2022/06/21 09:29:15;;;;;;;8.02;1.55;;;18.70;96.60;;;;;;5097826;28;20534;-57
2022/06/21 09:31:48;;;;;;;7.18;1.38;;;18.80;95.90;;;;;;5090849;28;20044;-57
2022/06/21 09:34:33;;;;;;;6.28;1.75;;;18.90;95.70;;;;;;5091381;28;20052;-58
2022/06/21 09:37:08;;;;;;;3.05;1.20;;;19.00;95.40;;;;;;5108974;28;20498;-58
2022/06/21 09:39:42;;;;;;;4.03;0.80;;;19.00;95.40;;;;;;5110770;28;20044;-55
2022/06/21 09:42:46;;;;;;;7.50;1.63;;;19.10;95.30;;;;;;5091684;28;20048;-57
2022/06/21 09:45:34;;;;;;;3.90;1.30;;;19.30;93.70;;;;;;5102594;28;20388;-58
2022/06/21 09:48:18;;;;;;;5.60;1.15;;;19.50;93.80;;;;;;5105534;28;20043;-57
2022/06/21 09:51:28;;;;;;;4.30;1.20;;;19.60;93.00;;;;;;5092080;28;20051;-56
2022/06/21 09:54:29;;;;;;;7.50;1.75;;;19.80;92.90;;;;;;5098392;28;20059;-58
2022/06/21 09:57:16;;;;;;;2.80;0.93;;;20.00;92.80;;;;;;5111553;28;20471;-58
2022/06/21 10:00:25;;;;;;;3.50;1.10;;;20.10;91.90;;;;;;5092330;28;20040;-58
2022/06/21 10:03:24;;;;;;;2.35;0.90;;;20.30;91.40;;;;;;5091861;28;20044;-58
2022/06/21 10:06:14;;;;;;;2.80;0.80;;;20.40;90.90;;;;;;5091365;28;20044;-58
2022/06/21 10:08:45;;;;;;;3.92;0.80;;;20.60;90.30;;;;;;5091987;28;20059;-58
2022/06/21 10:11:39;;;;;;;1.55;0.68;;;20.80;88.00;;;;;;5092645;28;20051;-59
2022/06/21 10:14:29;;;;;;;1.52;0.85;;;21.00;87.20;;;;;;5107224;28;20036;-58
2022/06/21 10:17:20;;;;;;;1.13;0.50;;;21.20;83.40;;;;;;5091175;28;20459;-58
2022/06/21 10:20:21;;;;;;;2.33;1.00;;;21.20;79.10;;;;;;5107924;28;20043;-59
2022/06/21 10:22:57;;;;;;;1.10;0.47;;;21.20;77.70;;;;;;5111463;28;20050;-58
2022/06/21 10:25:47;;;;;;;1.33;0.60;;;21.10;77.90;;;;;;5110683;28;20039;-59
2022/06/21 10:28:23;;;;;;;;;;;21.30;77.80;;;;;;5100084;28;20391;-58
2022/06/21 10:31:20;;;;;;;2.70;0.40;;;21.40;75.10;;;;;;5092323;28;19924;-58
2022/06/21 10:34:12;;;;;;;1.63;0.57;;;21.50;70.60;;;;;;5091598;28;20052;-58
2022/06/21 10:36:58;;;;;;;;;;;21.60;70.80;;;;;;5102510;28;20043;-59
2022/06/21 10:40:01;;;;;;;2.22;0.55;;;21.80;70.90;;;;;;5094457;28;19927;-56
2022/06/21 10:43:06;;;;;;;2.53;0.82;;;21.90;71.70;;;;;;5103524;28;20483;-59
2022/06/21 10:45:41;;;;;;;2.22;0.60;;;22.10;70.80;;;;;;5111310;28;20036;-58
2022/06/21 10:48:40;;;;;;;1.98;0.60;;;22.20;69.80;;;;;;5105840;28;20040;-58
2022/06/21 10:51:38;;;;;;;2.85;0.80;;;22.40;69.30;;;;;;5109555;28;20047;-58
2022/06/21 10:54:18;;;;;;;2.42;0.80;;;22.60;69.50;;;;;;5110313;28;20106;-58
2022/06/21 10:57:09;;;;;;;4.38;0.93;;;22.70;69.70;;;;;;5111434;28;20514;-58
2022/06/21 11:02:55;;;;;;;1.10;0.63;;;22.90;68.80;;;;;;5098263;28;20036;-57
2022/06/21 11:05:58;;;;;;;1.42;0.65;;;23.00;68.70;;;;;;5109558;28;20050;-58
2022/06/21 11:08:35;;;;;;;1.55;0.70;;;23.10;66.60;;;;;;5090598;28;20047;-58
2022/06/21 11:11:25;;;;;;;3.13;0.90;;;23.20;66.50;;;;;;5103163;28;20454;-58
2022/06/21 11:14:08;;;;;;;;;;;23.40;66.80;;;;;;5108035;28;20066;-58
2022/06/21 11:16:46;;;;;;;0.98;0.70;;;23.50;65.90;;;;;;5108595;28;19920;-58
2022/06/21 11:19:38;;;;;;;1.85;0.90;;;23.70;64.70;;;;;;5090693;28;20415;-58
2022/06/21 11:22:31;;;;;;;4.35;1.40;;;23.70;65.10;;;;;;5079976;28;20081;-60
2022/06/21 11:25:37;;;;;;;1.38;0.65;;;23.90;65.30;;;;;;5108317;28;20051;-60
2022/06/21 11:28:24;;;;;;;2.70;1.00;;;24.00;63.50;;;;;;5103066;28;20502;-58
2022/06/21 11:31:00;;;;;;;1.35;0.80;;;24.00;62.90;;;;;;5096068;28;20050;-59
2022/06/21 11:33:45;;;;;;;1.95;0.77;;;24.00;63.50;;;;;;5100780;28;20048;-61
2022/06/21 11:36:47;;;;;;;1.98;0.75;;;23.90;62.90;;;;;;5091082;28;20040;-58
2022/06/21 11:39:27;;;;;;;0.90;0.60;;;24.00;62.70;;;;;;5089235;28;20056;-58
2022/06/21 11:42:04;;;;;;;1.05;0.70;;;24.00;62.50;;;;;;5090358;28;20478;-58
2022/06/21 11:44:44;;;;;;;1.83;0.77;;;24.10;63.30;;;;;;5090910;28;20040;-59
2022/06/21 11:47:27;;;;;;;2.13;1.10;;;24.20;60.30;;;;;;5094875;28;20047;-59
2022/06/21 11:50:25;;;;;;;3.50;0.90;;;24.20;60.20;;;;;;5100036;28;20505;-59
2022/06/21 11:53:13;;;;;;;5.32;0.90;;;24.40;60.80;;;;;;5097845;28;20050;-59
2022/06/21 11:55:48;;;;;;;5.32;1.00;;;24.70;60.20;;;;;;5098457;28;20046;-59
2022/06/21 11:58:45;;;;;;;2.03;0.75;;;25.00;61.20;;;;;;5099460;28;20051;-59
2022/06/21 12:01:25;;;;;;;2.55;1.08;;;25.40;58.90;;;;;;5098101;28;20058;-59
2022/06/21 12:04:24;;;;;;;1.60;0.90;;;25.70;58.50;;;;;;5098404;28;20044;-59
2022/06/21 12:07:14;;;;;;;3.55;1.00;;;26.10;59.70;;;;;;5092832;28;20074;-59
2022/06/21 12:09:55;;;;;;;7.35;1.48;;;26.60;58.10;;;;;;5104030;28;20161;-59
2022/06/21 12:12:57;;;;;;;2.80;0.80;;;26.70;57.70;;;;;;5099503;28;20487;-58
2022/06/21 12:15:32;;;;;;;14.57;3.30;;;26.90;57.20;;;;;;5091683;28;20055;-58
2022/06/21 12:18:12;;;;;;;2.40;1.00;;;27.20;57.30;;;;;;5097905;28;20056;-59
2022/06/21 12:21:04;;;;;;;7.88;1.40;;;27.60;55.50;;;;;;5103214;28;20051;-57
2022/06/21 12:23:56;;;;;;;9.38;5.38;;;27.70;56.00;;;;;;5108508;28;20137;-57
2022/06/21 12:26:27;;;;;;;3.55;2.60;;;28.00;57.10;;;;;;5107849;28;20056;-59
2022/06/21 12:28:58;;;;;;;4.88;1.15;;;28.20;55.00;;;;;;5094015;28;20052;-58
2022/06/21 12:31:27;;;;;;;2.72;0.95;;;28.30;55.40;;;;;;5101049;28;20043;-58
2022/06/21 12:34:06;;;;;;;2.37;1.00;;;28.40;53.90;;;;;;5106849;28;20044;-58
2022/06/21 12:36:59;;;;;;;1.73;0.97;;;28.60;53.70;;;;;;5112156;28;20044;-59
2022/06/21 12:39:51;;;;;;;2.30;1.13;;;28.70;53.40;;;;;;5088068;28;20052;-59
2022/06/21 12:42:45;;;;;;;3.95;1.10;;;28.90;53.60;;;;;;5089603;28;20048;-58
2022/06/21 12:45:29;;;;;;;5.30;1.00;;;29.10;53.90;;;;;;5089308;28;20055;-59
2022/06/21 12:48:23;;;;;;;2.83;0.90;;;29.30;54.40;;;;;;5093697;28;20036;-59
2022/06/21 12:51:11;;;;;;;3.00;1.60;;;29.60;54.40;;;;;;5093632;28;20048;-58
2022/06/21 12:53:47;;;;;;;7.68;1.23;;;29.90;53.40;;;;;;5093545;28;20387;-58
2022/06/21 12:56:34;;;;;;;6.50;1.20;;;30.20;53.40;;;;;;5093311;28;20392;-59
2022/06/21 12:59:16;;;;;;;1.45;1.00;;;30.40;53.50;;;;;;5092954;28;20044;-58
2022/06/21 13:01:55;;;;;;;3.33;1.20;;;30.40;53.30;;;;;;5093401;28;20044;-58
2022/06/21 13:04:35;;;;;;;7.03;1.60;;;30.50;51.90;;;;;;5093690;28;20047;-59
2022/06/21 13:07:09;;;;;;;3.92;1.38;;;30.60;51.90;;;;;;5093238;28;20495;-59
2022/06/21 13:09:39;;;;;;;2.88;1.13;;;30.80;52.50;;;;;;5110768;28;20407;-59
2022/06/21 13:12:13;;;;;;;5.28;1.10;;;31.00;52.50;;;;;;5113382;28;20511;-59
2022/06/21 13:14:47;;;;;;;4.35;1.30;;;31.30;52.50;;;;;;5113557;28;20475;-60
2022/06/21 13:17:27;;;;;;;5.10;1.45;;;31.50;52.50;;;;;;5112261;28;20415;-60
2022/06/21 13:20:29;;;;;;;6.22;1.10;;;31.60;51.80;;;;;;5096815;28;20074;-60
2022/06/21 13:23:21;;;;;;;3.03;1.30;;;31.80;50.80;;;;;;5092888;28;20048;-59
2022/06/21 13:26:02;;;;;;;3.55;1.08;;;31.80;49.10;;;;;;5092773;28;20201;-60
2022/06/21 13:28:33;;;;;;;3.10;1.00;;;31.80;50.70;;;;;;5092648;28;20051;-61
2022/06/21 13:31:12;;;;;;;3.70;1.23;;;31.80;49.70;;;;;;5091722;28;20051;-59
2022/06/21 13:34:02;;;;;;;3.30;1.10;;;32.00;49.10;;;;;;5093936;28;20047;-59
2022/06/21 13:36:43;;;;;;;5.40;1.05;;;32.00;48.70;;;;;;5113065;28;20063;-59
2022/06/21 13:39:26;;;;;;;1.75;1.10;;;32.00;48.00;;;;;;5097070;28;20047;-59
2022/06/21 13:42:37;;;;;;;4.30;1.80;;;32.00;47.60;;;;;;5091398;28;20051;-60
2022/06/21 13:45:33;;;;;;;7.38;2.25;;;32.00;48.90;;;;;;5092294;28;20407;-59
2022/06/21 13:48:16;;;;;;;7.18;1.80;;;32.00;50.40;;;;;;5093524;28;20040;-60
2022/06/21 13:50:58;;;;;;;4.55;1.50;;;32.00;50.40;;;;;;5091115;28;20472;-59
2022/06/21 13:53:43;;;;;;;3.30;1.23;;;31.90;49.40;;;;;;5091958;28;20054;-60
2022/06/21 13:56:49;;;;;;;4.70;1.63;;;31.90;47.80;;;;;;5090019;28;20482;-61
2022/06/21 13:59:23;;;;;;;6.47;1.60;;;31.80;49.40;;;;;;5107450;28;20040;-60
2022/06/21 14:02:25;;;;;;;4.55;1.65;;;31.80;48.80;;;;;;5112568;28;20051;-61
2022/06/21 14:05:01;;;;;;;4.63;1.45;;;32.00;49.50;;;;;;5095435;28;20058;-60
2022/06/21 14:07:42;;;;;;;2.97;1.50;;;32.10;49.80;;;;;;5109385;28;20050;-61
2022/06/21 14:10:21;;;;;;;8.68;1.75;;;32.10;50.10;;;;;;5092249;28;20063;-59
2022/06/21 14:13:00;;;;;;;;;;;32.00;50.60;;;;;;5091388;28;20056;-60
2022/06/21 14:15:46;;;;;;;7.15;1.80;;;32.00;51.00;;;;;;5092198;28;19927;-58